createdAt,value
2017-11-26T00:00:50.614Z,6.60
2017-11-26T00:03:19.521Z,7.40
2017-11-26T00:05:48.436Z,6.80
2017-11-26T00:08:17.302Z,6.50
2017-11-26T00:10:46.204Z,6.60
2017-11-26T00:13:15.093Z,7.70
2017-11-26T00:15:43.955Z,7.20
2017-11-26T00:18:12.869Z,7.63
2017-11-26T00:20:41.799Z,6.60
2017-11-26T00:23:10.670Z,6.93
2017-11-26T00:25:39.578Z,7.10
2017-11-26T00:28:08.457Z,7.43
2017-11-26T00:30:37.496Z,8.53
2017-11-26T00:33:06.423Z,7.17
2017-11-26T00:35:35.290Z,8.13
2017-11-26T00:38:04.197Z,6.70
2017-11-26T00:40:33.106Z,7.43
2017-11-26T00:43:01.987Z,6.77
2017-11-26T00:45:30.888Z,8.53
2017-11-26T00:47:59.777Z,8.07
2017-11-26T00:50:28.655Z,7.87
2017-11-26T00:52:57.547Z,7.70
2017-11-26T00:55:26.458Z,8.30
2017-11-26T00:57:55.334Z,9.30
2017-11-26T01:00:24.213Z,7.60
2017-11-26T01:02:53.127Z,7.80
2017-11-26T01:05:21.993Z,9.70
2017-11-26T01:07:50.880Z,8.40
2017-11-26T01:10:19.752Z,7.83
2017-11-26T01:12:48.639Z,8.87
2017-11-26T01:15:17.579Z,8.53
2017-11-26T01:17:46.472Z,9.50
2017-11-26T01:20:15.348Z,8.73
2017-11-26T01:22:44.250Z,6.80
2017-11-26T01:25:13.119Z,10.17
2017-11-26T01:27:41.987Z,7.87
2017-11-26T01:30:10.904Z,8.63
2017-11-26T01:32:39.769Z,8.80
2017-11-26T01:35:08.651Z,8.87
2017-11-26T01:37:37.555Z,9.50
2017-11-26T01:40:06.429Z,8.73
2017-11-26T01:42:35.303Z,8.80
2017-11-26T01:45:04.239Z,9.13
2017-11-26T01:47:33.118Z,8.20
2017-11-26T01:50:02.044Z,9.53
2017-11-26T01:52:30.937Z,10.57
2017-11-26T01:54:59.822Z,9.10
2017-11-26T01:57:28.697Z,10.10
2017-11-26T01:59:57.632Z,9.23
2017-11-26T02:02:26.557Z,10.60
2017-11-26T02:04:55.490Z,9.20
2017-11-26T02:07:24.396Z,9.20
2017-11-26T02:09:53.356Z,9.97
2017-11-26T02:12:22.285Z,10.07
2017-11-26T02:14:51.238Z,9.43
2017-11-26T02:17:20.099Z,9.40
2017-11-26T02:19:51.627Z,9.27
2017-11-26T02:22:20.621Z,9.47
2017-11-26T02:24:49.487Z,9.27
2017-11-26T02:27:18.383Z,9.77
2017-11-26T02:29:47.255Z,8.53
2017-11-26T02:32:21.942Z,8.87
2017-11-26T02:34:56.586Z,7.80
2017-11-26T02:37:25.481Z,8.67
2017-11-26T02:39:54.345Z,10.03
2017-11-26T02:42:23.215Z,9.30
2017-11-26T02:44:52.116Z,8.60
2017-11-26T02:47:21.009Z,9.40
2017-11-26T02:49:49.880Z,7.50
2017-11-26T02:52:18.770Z,7.60
2017-11-26T02:54:47.630Z,9.90
2017-11-26T02:57:16.492Z,9.13
2017-11-26T02:59:45.395Z,9.60
2017-11-26T03:02:14.513Z,8.73
2017-11-26T03:04:43.381Z,9.40
2017-11-26T03:07:12.287Z,9.40
2017-11-26T03:09:41.152Z,8.30
2017-11-26T03:12:10.014Z,9.40
2017-11-26T03:14:38.894Z,9.73
2017-11-26T03:17:07.751Z,9.30
2017-11-26T03:19:36.652Z,8.17
2017-11-26T03:22:05.519Z,8.90
2017-11-26T03:24:34.392Z,8.67
2017-11-26T03:27:03.297Z,7.97
2017-11-26T03:29:32.175Z,7.97
2017-11-26T03:32:01.028Z,7.50
2017-11-26T03:34:29.921Z,7.63
2017-11-26T03:36:58.787Z,7.53
2017-11-26T03:39:27.653Z,8.50
2017-11-26T03:41:56.781Z,7.70
2017-11-26T03:44:25.642Z,7.97
2017-11-26T03:46:54.504Z,6.70
2017-11-26T03:49:23.403Z,7.53
2017-11-26T03:51:52.279Z,7.70
2017-11-26T03:54:21.154Z,7.63
2017-11-26T03:56:50.033Z,7.80
2017-11-26T03:59:18.897Z,6.77
2017-11-26T04:01:47.811Z,7.80
2017-11-26T04:04:21.167Z,7.03
2017-11-26T04:06:50.070Z,8.27
2017-11-26T04:09:18.947Z,6.10
2017-11-26T04:11:47.835Z,6.33
2017-11-26T04:14:16.725Z,6.70
2017-11-26T04:16:45.606Z,5.93
2017-11-26T04:19:14.474Z,7.43
2017-11-26T04:21:43.366Z,7.40
2017-11-26T04:24:12.236Z,7.60
2017-11-26T04:26:41.105Z,7.50
2017-11-26T04:29:09.997Z,7.67
2017-11-26T04:31:38.882Z,7.00
2017-11-26T04:34:07.750Z,7.87
2017-11-26T04:36:36.667Z,7.23
2017-11-26T04:39:05.543Z,6.60
2017-11-26T04:41:34.402Z,6.70
2017-11-26T04:44:03.286Z,6.77
2017-11-26T04:46:32.188Z,6.80
2017-11-26T04:49:01.054Z,7.73
2017-11-26T04:51:34.632Z,7.40
2017-11-26T04:54:03.492Z,7.63
2017-11-26T04:56:32.381Z,7.07
2017-11-26T04:59:01.250Z,6.30
2017-11-26T05:01:30.160Z,7.10
2017-11-26T05:03:59.043Z,6.63
2017-11-26T05:06:27.897Z,6.53
2017-11-26T05:08:56.793Z,6.73
2017-11-26T05:11:25.667Z,6.67
2017-11-26T05:13:54.529Z,6.43
2017-11-26T05:16:23.436Z,6.87
2017-11-26T05:18:52.309Z,7.13
2017-11-26T05:21:21.178Z,7.17
2017-11-26T05:23:50.094Z,7.70
2017-11-26T05:26:18.973Z,6.70
2017-11-26T05:28:47.871Z,7.00
2017-11-26T05:31:16.761Z,7.30
2017-11-26T05:33:45.626Z,6.13
2017-11-26T05:36:14.494Z,5.90
2017-11-26T05:38:43.395Z,5.60
2017-11-26T05:41:12.263Z,6.00
2017-11-26T05:43:41.126Z,6.50
2017-11-26T05:46:10.023Z,6.30
2017-11-26T05:48:38.886Z,6.93
2017-11-26T05:51:07.751Z,6.17
2017-11-26T05:53:36.657Z,6.50
2017-11-26T05:56:05.519Z,6.63
2017-11-26T05:58:34.380Z,5.90
2017-11-26T06:01:03.277Z,7.17
2017-11-26T06:03:32.166Z,5.40
2017-11-26T06:06:01.057Z,5.70
2017-11-26T06:08:29.927Z,5.23
2017-11-26T06:10:58.794Z,5.97
2017-11-26T06:13:27.681Z,5.50
2017-11-26T06:15:56.557Z,4.93
2017-11-26T06:18:25.425Z,5.00
2017-11-26T06:20:54.324Z,6.50
2017-11-26T06:23:23.209Z,6.83
2017-11-26T06:25:52.083Z,6.00
2017-11-26T06:28:20.969Z,5.27
2017-11-26T06:30:49.828Z,6.40
2017-11-26T06:33:18.708Z,5.50
2017-11-26T06:35:47.603Z,5.50
2017-11-26T06:38:16.459Z,4.50
2017-11-26T06:40:45.350Z,5.00
2017-11-26T06:43:14.227Z,7.50
2017-11-26T06:45:43.091Z,5.30
2017-11-26T06:48:11.985Z,5.70
2017-11-26T06:50:40.848Z,5.10
2017-11-26T06:53:09.701Z,5.60
2017-11-26T06:55:38.592Z,5.03
2017-11-26T06:58:07.471Z,5.60
2017-11-26T07:00:36.334Z,4.60
2017-11-26T07:03:05.239Z,6.53
2017-11-26T07:05:34.137Z,4.97
2017-11-26T07:08:03.048Z,6.00
2017-11-26T07:10:31.931Z,5.80
2017-11-26T07:13:00.797Z,5.60
2017-11-26T07:15:29.692Z,5.90
2017-11-26T07:17:58.569Z,5.30
2017-11-26T07:20:27.458Z,5.23
2017-11-26T07:22:56.357Z,5.73
2017-11-26T07:25:25.381Z,6.00
2017-11-26T07:27:54.286Z,5.63
2017-11-26T07:30:23.203Z,7.47
2017-11-26T07:32:52.074Z,7.07
2017-11-26T07:35:20.978Z,5.43
2017-11-26T07:37:49.844Z,5.93
2017-11-26T07:40:18.736Z,5.97
2017-11-26T07:42:47.627Z,6.37
2017-11-26T07:45:16.508Z,5.87
2017-11-26T07:47:45.368Z,6.70
2017-11-26T07:50:14.260Z,6.50
2017-11-26T07:52:43.129Z,6.67
2017-11-26T07:55:12.002Z,6.23
2017-11-26T07:57:40.903Z,5.90
2017-11-26T08:00:09.768Z,6.20
2017-11-26T08:02:38.634Z,6.37
2017-11-26T08:05:07.559Z,6.17
2017-11-26T08:07:36.443Z,6.00
2017-11-26T08:10:05.316Z,6.40
2017-11-26T08:12:34.220Z,5.13
2017-11-26T08:15:03.101Z,6.80
2017-11-26T08:17:31.980Z,5.60
2017-11-26T08:20:00.874Z,6.40
2017-11-26T08:22:29.767Z,5.63
2017-11-26T08:24:58.669Z,6.57
2017-11-26T08:27:27.607Z,6.80
2017-11-26T08:29:56.476Z,5.77
2017-11-26T08:32:25.355Z,6.60
2017-11-26T08:34:54.286Z,6.50
2017-11-26T08:37:23.173Z,5.90
2017-11-26T08:39:52.050Z,5.87
2017-11-26T08:42:20.954Z,5.13
2017-11-26T08:44:49.840Z,5.70
2017-11-26T08:47:18.738Z,6.93
2017-11-26T08:49:47.648Z,5.77
2017-11-26T08:52:16.534Z,5.70
2017-11-26T08:54:46.255Z,5.57
2017-11-26T08:57:15.276Z,5.90
2017-11-26T08:59:48.327Z,6.33
2017-11-26T09:02:17.469Z,6.13
2017-11-26T09:04:47.093Z,6.03
2017-11-26T09:07:17.158Z,6.10
2017-11-26T09:09:46.841Z,5.37
2017-11-26T09:12:15.951Z,6.23
2017-11-26T09:14:45.155Z,6.70
2017-11-26T09:17:14.271Z,5.77
2017-11-26T09:19:43.971Z,5.30
2017-11-26T09:22:13.120Z,5.30
2017-11-26T09:24:42.043Z,5.50
2017-11-26T09:27:10.908Z,4.97
2017-11-26T09:29:39.778Z,5.27
2017-11-26T09:32:08.681Z,5.40
2017-11-26T09:37:55.496Z,5.77
2017-11-26T09:40:28.791Z,5.80
2017-11-26T09:42:57.754Z,4.90
2017-11-26T09:45:26.613Z,5.30
2017-11-26T09:47:55.460Z,5.30
2017-11-26T09:50:24.350Z,5.10
2017-11-26T09:52:53.377Z,5.03
2017-11-26T09:55:22.255Z,4.30
2017-11-26T09:57:51.124Z,5.63
2017-11-26T10:00:20.005Z,5.63
2017-11-26T10:02:48.877Z,5.00
2017-11-26T10:05:17.745Z,5.27
2017-11-26T10:07:46.648Z,6.93
2017-11-26T10:10:15.516Z,5.50
2017-11-26T10:12:44.410Z,4.90
2017-11-26T10:15:13.288Z,5.13
2017-11-26T10:17:42.166Z,4.80
2017-11-26T10:20:11.078Z,4.20
2017-11-26T10:22:39.941Z,4.30
2017-11-26T10:25:08.820Z,4.50
2017-11-26T10:27:37.713Z,4.40
2017-11-26T10:30:06.574Z,4.60
2017-11-26T10:32:35.485Z,4.70
2017-11-26T10:35:04.352Z,4.63
2017-11-26T10:37:33.227Z,4.77
2017-11-26T10:40:02.158Z,4.63
2017-11-26T10:42:31.033Z,4.97
2017-11-26T10:44:59.898Z,4.73
2017-11-26T10:47:28.786Z,4.70
2017-11-26T10:49:57.633Z,5.00
2017-11-26T10:52:26.521Z,5.93
2017-11-26T10:54:55.411Z,4.30
2017-11-26T10:57:24.281Z,4.63
2017-11-26T10:59:53.156Z,4.43
2017-11-26T11:02:22.041Z,4.53
2017-11-26T11:04:50.900Z,4.10
2017-11-26T11:07:19.792Z,3.70
2017-11-26T11:09:48.707Z,5.00
2017-11-26T11:12:17.573Z,3.70
2017-11-26T11:14:46.457Z,3.50
2017-11-26T11:17:15.331Z,3.43
2017-11-26T11:19:44.191Z,3.83
2017-11-26T11:22:13.066Z,2.90
2017-11-26T11:24:42.020Z,3.23
2017-11-26T11:27:10.881Z,3.40
2017-11-26T11:29:39.761Z,3.37
2017-11-26T11:32:08.650Z,3.70
2017-11-26T11:34:37.511Z,3.33
2017-11-26T11:37:06.402Z,3.60
2017-11-26T11:39:35.336Z,2.70
2017-11-26T11:42:04.221Z,3.60
2017-11-26T11:44:33.082Z,3.07
2017-11-26T11:47:01.969Z,3.50
2017-11-26T11:49:30.816Z,4.47
2017-11-26T11:51:59.718Z,3.60
2017-11-26T11:54:28.597Z,3.23
2017-11-26T11:56:57.473Z,2.63
2017-11-26T11:59:26.393Z,2.90
2017-11-26T12:01:55.285Z,3.27
2017-11-26T12:04:24.159Z,3.23
2017-11-26T12:06:53.051Z,3.03
2017-11-26T12:09:21.925Z,3.40
2017-11-26T12:11:50.782Z,2.70
2017-11-26T12:14:19.749Z,2.80
2017-11-26T12:16:48.618Z,3.60
2017-11-26T12:19:17.481Z,3.17
2017-11-26T12:21:46.384Z,2.80
2017-11-26T12:24:15.259Z,3.67
2017-11-26T12:26:44.171Z,3.10
2017-11-26T12:29:13.047Z,3.20
2017-11-26T12:31:41.936Z,4.20
2017-11-26T12:34:10.829Z,3.20
2017-11-26T12:36:39.718Z,4.83
2017-11-26T12:39:08.642Z,3.67
2017-11-26T12:41:37.545Z,3.63
2017-11-26T12:44:06.431Z,3.70
2017-11-26T12:46:35.304Z,3.40
2017-11-26T12:49:04.194Z,3.70
2017-11-26T12:51:33.642Z,3.10
2017-11-26T12:54:02.566Z,3.20
2017-11-26T12:56:31.438Z,3.80
2017-11-26T12:59:00.312Z,3.87
2017-11-26T13:01:29.201Z,3.87
2017-11-26T13:03:58.073Z,3.10
2017-11-26T13:06:26.961Z,3.90
2017-11-26T13:08:55.843Z,3.23
2017-11-26T13:11:24.734Z,3.60
2017-11-26T13:13:53.635Z,4.30
2017-11-26T13:16:22.495Z,3.73
2017-11-26T13:18:51.369Z,3.17
2017-11-26T13:21:20.265Z,4.00
2017-11-26T13:23:49.144Z,3.20
2017-11-26T13:26:18.013Z,4.07
2017-11-26T13:28:46.945Z,3.90
2017-11-26T13:31:15.815Z,3.43
2017-11-26T13:33:44.689Z,3.50
2017-11-26T13:36:13.575Z,3.60
2017-11-26T13:38:42.436Z,3.23
2017-11-26T13:41:11.298Z,5.40
2017-11-26T13:43:40.203Z,3.73
2017-11-26T13:46:09.082Z,3.67
2017-11-26T13:48:37.965Z,3.50
2017-11-26T13:51:06.855Z,2.90
2017-11-26T13:53:35.772Z,3.60
2017-11-26T13:56:04.597Z,4.23
2017-11-26T13:58:33.493Z,3.07
2017-11-26T14:01:02.366Z,4.10
2017-11-26T14:03:31.229Z,4.80
2017-11-26T14:06:00.116Z,4.50
2017-11-26T14:08:28.990Z,3.90
2017-11-26T14:10:57.874Z,3.97
2017-11-26T14:13:26.759Z,4.70
2017-11-26T14:15:55.683Z,3.80
2017-11-26T14:18:24.542Z,3.20
2017-11-26T14:20:53.433Z,2.80
2017-11-26T14:23:22.305Z,3.73
2017-11-26T14:25:51.168Z,3.40
2017-11-26T14:28:20.062Z,4.07
2017-11-26T14:30:48.965Z,3.83
2017-11-26T14:33:17.863Z,3.70
2017-11-26T14:35:46.787Z,3.80
2017-11-26T14:38:15.661Z,3.50
2017-11-26T14:40:44.534Z,3.40
2017-11-26T14:43:13.455Z,3.90
2017-11-26T14:45:42.345Z,3.10
2017-11-26T14:48:11.207Z,3.97
2017-11-26T14:50:40.099Z,3.03
2017-11-26T14:53:08.991Z,3.27
2017-11-26T14:55:37.863Z,3.00
2017-11-26T14:58:06.758Z,3.10
2017-11-26T15:00:35.652Z,2.80
2017-11-26T15:03:04.538Z,3.27
2017-11-26T15:05:34.387Z,3.07
2017-11-26T15:08:03.272Z,3.83
2017-11-26T15:10:32.180Z,4.27
2017-11-26T15:13:01.048Z,3.27
2017-11-26T15:15:29.913Z,3.90
2017-11-26T15:17:58.817Z,3.43
2017-11-26T15:20:27.685Z,3.63
2017-11-26T15:22:56.550Z,4.17
2017-11-26T15:25:25.443Z,3.10
2017-11-26T15:27:54.306Z,3.40
2017-11-26T15:30:23.185Z,3.57
2017-11-26T15:32:52.111Z,3.57
2017-11-26T15:35:20.978Z,3.73
2017-11-26T15:37:49.880Z,3.53
2017-11-26T15:40:18.796Z,4.10
2017-11-26T15:42:47.657Z,4.20
2017-11-26T15:45:16.517Z,3.70
2017-11-26T15:47:45.410Z,4.17
2017-11-26T15:50:14.269Z,3.53
2017-11-26T15:52:43.131Z,3.33
2017-11-26T15:55:12.058Z,3.47
2017-11-26T15:57:40.944Z,3.40
2017-11-26T16:00:09.803Z,3.93
2017-11-26T16:02:38.701Z,4.87
2017-11-26T16:05:07.569Z,4.67
2017-11-26T16:07:36.600Z,4.47
2017-11-26T16:10:05.484Z,4.83
2017-11-26T16:12:34.368Z,4.20
2017-11-26T16:15:03.256Z,4.63
2017-11-26T16:17:32.165Z,5.97
2017-11-26T16:20:01.030Z,5.80
2017-11-26T16:22:29.894Z,4.60
2017-11-26T16:24:58.786Z,4.67
2017-11-26T16:27:27.668Z,6.50
2017-11-26T16:29:56.710Z,4.90
2017-11-26T16:32:25.628Z,5.70
2017-11-26T16:34:54.526Z,5.00
2017-11-26T16:37:23.391Z,3.70
2017-11-26T16:39:52.285Z,5.40
2017-11-26T16:42:21.161Z,5.60
2017-11-26T16:44:50.053Z,5.30
2017-11-26T16:47:18.983Z,4.03
2017-11-26T16:49:47.863Z,5.07
2017-11-26T16:52:16.738Z,4.50
2017-11-26T16:54:45.638Z,3.40
2017-11-26T16:57:14.494Z,4.50
2017-11-26T16:59:43.652Z,5.27
2017-11-26T17:02:12.575Z,5.63
2017-11-26T17:04:41.486Z,3.70
2017-11-26T17:07:10.445Z,4.30
2017-11-26T17:09:39.350Z,4.13
2017-11-26T17:12:08.259Z,4.97
2017-11-26T17:14:37.146Z,3.83
2017-11-26T17:17:06.016Z,4.63
2017-11-26T17:19:34.910Z,4.37
2017-11-26T17:22:04.629Z,4.73
2017-11-26T17:24:33.511Z,4.17
2017-11-26T17:27:02.420Z,5.20
2017-11-26T17:29:31.285Z,5.10
2017-11-26T17:32:00.153Z,5.50
2017-11-26T17:34:29.077Z,4.47
2017-11-26T17:36:57.983Z,4.70
2017-11-26T17:39:26.845Z,4.33
2017-11-26T17:41:55.715Z,5.03
2017-11-26T17:44:24.623Z,5.40
2017-11-26T17:46:53.525Z,4.73
2017-11-26T17:49:22.732Z,4.23
2017-11-26T17:51:52.056Z,4.83
2017-11-26T17:54:20.971Z,4.10
2017-11-26T17:56:49.843Z,4.07
2017-11-26T17:59:18.778Z,4.23
2017-11-26T18:01:47.661Z,4.30
2017-11-26T18:04:16.540Z,3.60
2017-11-26T18:06:45.435Z,4.30
2017-11-26T18:09:14.321Z,3.60
2017-11-26T18:11:43.225Z,4.17
2017-11-26T18:14:12.162Z,3.67
2017-11-26T18:16:41.053Z,4.30
2017-11-26T18:19:09.933Z,3.53
2017-11-26T18:21:38.887Z,3.90
2017-11-26T18:24:07.757Z,4.10
2017-11-26T18:26:36.686Z,4.13
2017-11-26T18:29:05.545Z,4.20
2017-11-26T18:31:34.413Z,4.60
2017-11-26T18:34:03.354Z,5.00
2017-11-26T18:36:32.318Z,3.90
2017-11-26T18:39:01.461Z,4.00
2017-11-26T18:41:30.404Z,4.30
2017-11-26T18:43:59.265Z,4.20
2017-11-26T18:46:28.242Z,3.97
2017-11-26T18:48:57.390Z,4.93
2017-11-26T18:51:26.341Z,4.70
2017-11-26T18:53:55.251Z,4.80
2017-11-26T18:56:24.117Z,5.03
2017-11-26T18:58:52.977Z,4.30
2017-11-26T19:01:21.865Z,4.20
2017-11-26T19:03:50.927Z,4.60
2017-11-26T19:06:19.873Z,4.40
2017-11-26T19:08:48.909Z,4.30
2017-11-26T19:11:17.816Z,4.43
2017-11-26T19:13:48.411Z,3.90
2017-11-26T19:16:17.678Z,4.50
2017-11-26T19:18:46.725Z,4.30
2017-11-26T19:21:15.583Z,6.10
2017-11-26T19:23:44.815Z,4.63
2017-11-26T19:26:13.735Z,4.00
2017-11-26T19:28:42.618Z,4.40
2017-11-26T19:31:11.588Z,4.47
2017-11-26T19:33:40.491Z,4.50
2017-11-26T19:36:09.483Z,5.17
2017-11-26T19:38:38.486Z,4.60
2017-11-26T19:41:07.447Z,4.40
2017-11-26T19:43:36.904Z,4.50
2017-11-26T19:46:05.783Z,5.33
2017-11-26T19:48:35.080Z,3.73
2017-11-26T19:51:04.120Z,4.67
2017-11-26T19:53:32.997Z,4.80
2017-11-26T19:56:02.124Z,5.00
2017-11-26T19:58:32.417Z,5.10
2017-11-26T20:01:02.024Z,4.30
2017-11-26T20:03:31.508Z,5.37
2017-11-26T20:06:00.515Z,5.70
2017-11-26T20:08:29.504Z,5.00
2017-11-26T20:10:58.485Z,5.50
2017-11-26T20:13:27.814Z,6.10
2017-11-26T20:15:56.935Z,5.23
2017-11-26T20:18:25.970Z,4.40
2017-11-26T20:20:54.987Z,5.60
2017-11-26T20:23:24.319Z,5.93
2017-11-26T20:25:53.543Z,5.20
2017-11-26T20:28:22.750Z,6.20
2017-11-26T20:30:52.050Z,5.00
2017-11-26T20:33:21.371Z,5.77
2017-11-26T20:35:50.438Z,5.60
2017-11-26T20:38:19.849Z,5.70
2017-11-26T20:40:48.970Z,5.73
2017-11-26T20:43:18.711Z,5.27
2017-11-26T20:45:47.689Z,5.60
2017-11-26T20:48:16.553Z,4.63
2017-11-26T20:50:45.768Z,5.07
2017-11-26T20:53:14.842Z,4.60
2017-11-26T20:55:44.137Z,4.87
2017-11-26T20:58:13.328Z,4.93
2017-11-26T21:00:42.566Z,8.97
2017-11-26T21:03:11.862Z,4.90
2017-11-26T21:05:40.963Z,5.17
2017-11-26T21:08:10.162Z,4.90
2017-11-26T21:10:39.162Z,5.97
2017-11-26T21:13:08.062Z,5.40
2017-11-26T21:15:37.264Z,5.90
2017-11-26T21:18:06.581Z,5.90
2017-11-26T21:20:35.750Z,4.97
2017-11-26T21:23:04.657Z,4.63
2017-11-26T21:25:33.699Z,4.93
2017-11-26T21:28:02.594Z,6.40
2017-11-26T21:30:31.642Z,6.13
2017-11-26T21:33:00.567Z,4.90
2017-11-26T21:35:29.420Z,5.77
2017-11-26T21:37:58.282Z,5.67
2017-11-26T21:40:27.179Z,5.03
2017-11-26T21:42:56.036Z,5.83
2017-11-26T21:45:24.901Z,6.00
2017-11-26T21:47:53.794Z,5.40
2017-11-26T21:50:22.652Z,5.80
2017-11-26T21:52:51.537Z,5.77
2017-11-26T21:55:20.398Z,5.20
2017-11-26T21:57:49.936Z,5.00
2017-11-26T22:00:18.817Z,5.43
2017-11-26T22:02:47.685Z,5.30
2017-11-26T22:05:16.543Z,5.10
2017-11-26T22:07:45.447Z,6.60
2017-11-26T22:10:14.329Z,5.53
2017-11-26T22:12:43.224Z,6.53
2017-11-26T22:15:12.086Z,6.03
2017-11-26T22:17:40.940Z,5.20
2017-11-26T22:20:09.829Z,5.83
2017-11-26T22:22:38.706Z,5.23
2017-11-26T22:25:07.557Z,5.87
2017-11-26T22:27:36.451Z,5.57
2017-11-26T22:30:05.315Z,5.90
2017-11-26T22:32:34.178Z,5.23
2017-11-26T22:35:03.070Z,5.30
2017-11-26T22:37:31.928Z,5.40
2017-11-26T22:40:00.791Z,5.50
2017-11-26T22:42:29.701Z,5.27
2017-11-26T22:44:58.561Z,5.10
2017-11-26T22:47:27.412Z,4.97
2017-11-26T22:49:56.308Z,5.40
2017-11-26T22:52:25.171Z,6.00
2017-11-26T22:54:54.041Z,6.33
2017-11-26T22:57:22.926Z,4.90
2017-11-26T22:59:51.782Z,6.10
2017-11-26T23:02:20.654Z,4.87
2017-11-26T23:04:49.548Z,4.90
2017-11-26T23:07:18.421Z,6.27
2017-11-26T23:09:47.285Z,5.67
2017-11-26T23:12:16.178Z,5.03
2017-11-26T23:14:45.047Z,5.40
2017-11-26T23:17:13.907Z,5.20
2017-11-26T23:19:42.815Z,5.53
2017-11-26T23:22:11.685Z,4.20
2017-11-26T23:24:40.729Z,5.93
2017-11-26T23:27:09.614Z,5.43
2017-11-26T23:29:38.480Z,5.10
2017-11-26T23:32:07.345Z,4.40
2017-11-26T23:34:36.230Z,4.73
2017-11-26T23:37:05.081Z,5.67
2017-11-26T23:39:33.944Z,6.17
2017-11-26T23:42:02.839Z,5.57
2017-11-26T23:44:31.722Z,5.70
2017-11-26T23:47:00.591Z,4.67
2017-11-26T23:49:29.476Z,5.80
2017-11-26T23:51:58.341Z,4.70
2017-11-26T23:54:27.237Z,4.80
2017-11-26T23:56:56.100Z,4.67
2017-11-26T23:59:24.988Z,4.80
